Time;durP1;ratioP1;P1;durP2;ratioP2;P2;SDS_P1;SDS_P2;PMS_P1;PMS_P2;Temp;Humidity;BMP_temperature;BMP_pressure;BME280_temperature;BME280_humidity;BME280_pressure;Samples;Min_cycle;Max_cycle;Signal;HPM_P1;HPM_P2
2022/11/06 00:01:14;;;;;;;12.63;9.07;;;9.10;99.90;;;;;;5010726;28;20210;-69
2022/11/06 00:03:40;;;;;;;14.53;8.60;;;9.10;99.90;;;;;;5006660;28;20183;-69
2022/11/06 00:08:59;;;;;;;8.77;7.07;;;9.10;99.90;;;;;;5007261;28;20426;-70
2022/11/06 00:11:24;;;;;;;10.43;6.70;;;9.10;99.90;;;;;;5009844;28;20461;-69
2022/11/06 00:13:53;;;;;;;8.97;7.57;;;9.10;99.90;;;;;;5007473;28;20495;-69
2022/11/06 00:16:19;;;;;;;13.97;8.07;;;9.10;99.90;;;;;;5012544;28;20187;-68
2022/11/06 00:18:46;;;;;;;10.57;8.33;;;9.10;99.90;;;;;;5012653;28;20854;-68
2022/11/06 00:21:21;;;;;;;9.57;6.90;;;9.10;99.90;;;;;;5007121;28;20840;-68
2022/11/06 00:23:47;;;;;;;10.17;7.93;;;9.10;99.90;;;;;;5024355;28;20458;-69
2022/11/06 00:26:15;;;;;;;9.27;7.80;;;9.00;99.90;;;;;;5029526;28;20426;-69
2022/11/06 00:28:42;;;;;;;9.60;7.37;;;9.00;99.90;;;;;;5036583;28;20434;-69
2022/11/06 00:31:10;;;;;;;12.07;8.50;;;9.00;99.90;;;;;;4999988;28;20910;-70
2022/11/06 00:33:36;;;;;;;10.30;7.63;;;9.00;99.90;;;;;;5017181;28;20553;-69
2022/11/06 00:36:04;;;;;;;10.37;7.33;;;8.90;99.90;;;;;;5008158;28;20461;-69
2022/11/06 00:38:30;;;;;;;12.50;7.77;;;8.90;99.90;;;;;;5014317;28;20438;-69
2022/11/06 00:40:56;;;;;;;10.40;8.13;;;8.80;99.90;;;;;;5014991;28;20466;-69
2022/11/06 00:43:21;;;;;;;10.23;7.17;;;8.80;99.90;;;;;;5020749;28;20450;-69
2022/11/06 00:45:47;;;;;;;8.73;7.00;;;8.70;99.90;;;;;;5015313;28;20273;-68
2022/11/06 00:48:12;;;;;;;10.70;6.90;;;8.70;99.90;;;;;;5025646;28;20182;-69
2022/11/06 00:50:38;;;;;;;9.90;7.00;;;8.50;99.90;;;;;;4998773;28;20179;-69
2022/11/06 00:53:03;;;;;;;9.73;7.57;;;8.40;99.90;;;;;;5013841;28;20218;-69
2022/11/06 00:55:29;;;;;;;9.83;7.50;;;8.50;99.90;;;;;;5015485;28;20687;-69
2022/11/06 00:57:54;;;;;;;12.03;7.70;;;8.50;99.90;;;;;;5004058;28;20265;-69
2022/11/06 01:00:21;;;;;;;10.07;8.43;;;8.50;99.90;;;;;;5015029;28;20198;-69
2022/11/06 01:02:46;;;;;;;10.50;7.77;;;8.60;99.90;;;;;;5009068;28;20755;-69
2022/11/06 01:05:13;;;;;;;10.60;8.50;;;8.60;99.90;;;;;;5017464;28;20486;-69
2022/11/06 01:07:39;;;;;;;12.00;7.97;;;8.50;99.90;;;;;;5012917;28;20567;-69
2022/11/06 01:10:05;;;;;;;17.43;9.27;;;8.60;99.90;;;;;;5005813;28;20657;-70
2022/11/06 01:12:31;;;;;;;12.00;8.50;;;8.60;99.90;;;;;;5013796;28;20491;-69
2022/11/06 01:14:57;;;;;;;13.50;8.70;;;8.60;99.90;;;;;;5027186;28;20422;-69
2022/11/06 01:17:23;;;;;;;10.93;9.17;;;8.60;99.90;;;;;;5009803;28;20828;-69
2022/11/06 01:19:48;;;;;;;8.80;7.57;;;8.60;99.90;;;;;;5003802;28;20220;-69
2022/11/06 01:22:14;;;;;;;12.70;8.80;;;8.60;99.90;;;;;;5006703;28;20494;-69
2022/11/06 01:24:40;;;;;;;10.03;8.20;;;8.60;99.90;;;;;;5011692;28;20192;-69
2022/11/06 01:27:06;;;;;;;14.90;7.90;;;8.50;99.90;;;;;;4995718;28;20211;-69
2022/11/06 01:29:31;;;;;;;10.43;8.53;;;8.50;99.90;;;;;;5012450;28;20186;-70
2022/11/06 01:31:57;;;;;;;9.80;7.90;;;8.50;99.90;;;;;;5024746;28;20214;-69
2022/11/06 01:34:22;;;;;;;10.90;8.27;;;8.50;99.90;;;;;;5011793;28;20187;-69
2022/11/06 01:36:48;;;;;;;14.03;9.60;;;8.50;99.90;;;;;;5014908;28;20609;-69
2022/11/06 01:39:14;;;;;;;8.73;7.83;;;8.50;99.90;;;;;;5003547;28;20311;-66
2022/11/06 01:41:43;;;;;;;11.40;7.87;;;8.50;99.90;;;;;;5021934;28;20214;-68
2022/11/06 01:44:34;;;;;;;12.10;8.30;;;8.50;99.90;;;;;;5005049;28;20962;-68
2022/11/06 01:47:01;;;;;;;9.50;7.30;;;8.50;99.90;;;;;;5013024;28;20418;-69
2022/11/06 01:49:29;;;;;;;8.77;7.27;;;8.50;99.90;;;;;;5008511;28;20421;-69
2022/11/06 01:52:01;;;;;;;13.33;7.70;;;8.50;99.90;;;;;;5018611;28;20455;-69
2022/11/06 01:54:29;;;;;;;11.20;8.43;;;8.40;99.90;;;;;;4999401;28;20890;-69
2022/11/06 01:56:57;;;;;;;11.30;7.90;;;8.40;99.90;;;;;;5013536;28;20421;-69
2022/11/06 01:59:26;;;;;;;11.40;7.87;;;8.40;99.90;;;;;;4994200;28;20484;-69
2022/11/06 02:01:52;;;;;;;10.87;7.67;;;8.40;99.90;;;;;;5006818;28;20836;-68
2022/11/06 02:04:40;;;;;;;8.93;7.83;;;8.40;99.90;;;;;;5008526;28;20430;-69
2022/11/06 02:07:06;;;;;;;14.33;7.27;;;8.40;99.90;;;;;;4996730;28;20193;-69
2022/11/06 02:09:33;;;;;;;11.70;8.60;;;8.40;99.90;;;;;;5025823;28;20544;-69
2022/11/06 02:12:17;;;;;;;10.50;6.10;;;8.40;99.90;;;;;;5002945;28;20495;-69
2022/11/06 02:15:07;;;;;;;9.43;7.20;;;8.30;99.90;;;;;;5008156;28;20422;-69
2022/11/06 02:18:05;;;;;;;10.60;6.50;;;8.40;99.90;;;;;;5006457;28;20825;-70
2022/11/06 02:20:42;;;;;;;9.73;7.17;;;8.40;99.90;;;;;;5017794;28;20827;-71
2022/11/06 02:23:36;;;;;;;11.97;6.90;;;8.30;99.90;;;;;;5024141;28;21060;-71
2022/11/06 02:26:10;;;;;;;12.30;8.47;;;8.30;99.90;;;;;;5025612;28;20497;-71
2022/11/06 02:28:52;;;;;;;12.17;7.67;;;8.30;99.90;;;;;;4986559;28;20442;-68
2022/11/06 02:31:23;;;;;;;12.30;7.77;;;8.30;99.90;;;;;;5014275;28;20478;-69
2022/11/06 02:33:56;;;;;;;8.97;7.27;;;8.30;99.90;;;;;;5007079;28;20529;-70
2022/11/06 02:36:28;;;;;;;12.80;7.03;;;8.20;99.90;;;;;;5020949;28;20444;-70
2022/11/06 02:38:59;;;;;;;12.13;7.40;;;8.30;99.90;;;;;;5005788;28;20425;-70
2022/11/06 02:41:30;;;;;;;9.00;6.10;;;8.30;99.90;;;;;;5019238;28;20543;-69
2022/11/06 02:43:56;;;;;;;9.90;7.10;;;8.30;99.90;;;;;;5010924;28;20468;-70
2022/11/06 02:46:27;;;;;;;7.87;6.53;;;8.30;99.90;;;;;;5004345;28;20491;-70
2022/11/06 02:49:03;;;;;;;10.20;6.73;;;8.20;99.90;;;;;;5002716;28;20456;-70
2022/11/06 02:51:31;;;;;;;11.70;6.77;;;8.20;99.90;;;;;;4998146;28;20445;-70
2022/11/06 02:54:03;;;;;;;8.60;6.20;;;8.20;99.90;;;;;;5022838;28;20529;-69
2022/11/06 02:56:35;;;;;;;8.27;6.00;;;8.20;99.90;;;;;;5004266;28;20460;-69
2022/11/06 02:59:08;;;;;;;12.77;6.50;;;8.20;99.90;;;;;;5031341;28;20504;-69
2022/11/06 03:02:06;;;;;;;8.47;6.60;;;8.20;99.90;;;;;;5013129;28;20500;-69
2022/11/06 03:04:54;;;;;;;9.90;6.20;;;8.20;99.90;;;;;;4985426;28;20833;-69
2022/11/06 03:07:32;;;;;;;9.10;5.63;;;8.20;99.90;;;;;;4994620;28;20492;-69
2022/11/06 03:09:58;;;;;;;8.03;5.27;;;8.10;99.90;;;;;;4990803;28;20996;-69
2022/11/06 03:12:51;;;;;;;7.20;4.80;;;8.10;99.90;;;;;;5006813;28;20473;-69
2022/11/06 03:16:04;;;;;;;13.30;10.30;;;8.10;99.90;;;;;;4996290;28;20191;-69
2022/11/06 03:18:45;;;;;;;15.63;9.40;;;8.10;99.90;;;;;;4970283;28;20447;-69
2022/11/06 03:21:35;;;;;;;10.83;8.50;;;8.10;99.90;;;;;;4956967;28;20481;-69
2022/11/06 03:24:13;;;;;;;13.47;7.57;;;8.10;99.90;;;;;;5002478;28;20584;-70
2022/11/06 03:26:45;;;;;;;11.37;7.37;;;8.00;99.90;;;;;;5008620;28;20448;-71
2022/11/06 03:29:35;;;;;;;8.53;6.40;;;8.00;99.90;;;;;;5007010;28;20926;-69
2022/11/06 03:32:11;;;;;;;9.30;6.03;;;8.00;99.90;;;;;;5018500;28;20453;-69
2022/11/06 03:35:05;;;;;;;9.33;5.73;;;8.00;99.90;;;;;;5020543;28;20496;-69
2022/11/06 03:37:38;;;;;;;8.50;5.50;;;8.00;99.90;;;;;;5014364;28;20426;-69
2022/11/06 03:40:10;;;;;;;7.80;6.23;;;8.00;99.90;;;;;;5025159;28;20502;-69
2022/11/06 03:42:39;;;;;;;11.90;6.30;;;8.00;99.90;;;;;;4998371;28;21063;-69
2022/11/06 03:45:09;;;;;;;12.40;7.40;;;7.90;99.90;;;;;;5022107;28;20447;-68
2022/11/06 03:47:46;;;;;;;8.90;7.50;;;7.90;99.90;;;;;;5010073;28;20429;-69
2022/11/06 03:50:25;;;;;;;10.57;7.27;;;7.90;99.90;;;;;;5018887;28;20870;-69
2022/11/06 03:53:25;;;;;;;9.03;7.60;;;7.90;99.90;;;;;;5014042;28;20453;-69
2022/11/06 03:55:56;;;;;;;8.80;6.83;;;7.90;99.90;;;;;;4999292;28;20447;-69
2022/11/06 03:58:29;;;;;;;10.20;8.37;;;7.90;99.90;;;;;;5034256;28;20905;-69
2022/11/06 04:00:57;;;;;;;11.43;9.70;;;7.80;99.90;;;;;;5008811;28;20462;-69
2022/11/06 04:03:28;;;;;;;13.77;7.57;;;7.90;99.90;;;;;;5013257;28;20472;-69
2022/11/06 04:06:01;;;;;;;12.37;8.47;;;7.80;99.90;;;;;;5001765;28;20490;-69
2022/11/06 04:14:04;;;;;;;8.73;6.70;;;7.80;99.90;;;;;;5006640;28;20889;-69
2022/11/06 04:16:36;;;;;;;8.40;7.60;;;7.80;99.90;;;;;;5001637;28;20444;-69
2022/11/06 04:19:04;;;;;;;13.00;8.03;;;7.80;99.90;;;;;;5001489;28;20422;-69
2022/11/06 04:21:51;;;;;;;11.10;7.30;;;7.80;99.90;;;;;;5011592;28;20527;-69
2022/11/06 04:28:08;;;;;;;13.33;7.43;;;7.70;99.90;;;;;;5001794;28;20467;-69
2022/11/06 04:30:48;;;;;;;10.47;7.77;;;7.70;99.90;;;;;;5021277;28;20830;-69
2022/11/06 04:33:41;;;;;;;16.70;8.07;;;7.70;99.90;;;;;;5011319;28;20435;-69
2022/11/06 04:36:58;;;;;;;9.43;7.43;;;7.70;99.90;;;;;;5019611;28;20444;-69
2022/11/06 04:39:47;;;;;;;8.97;6.70;;;7.70;99.90;;;;;;4960527;28;20441;-69
2022/11/06 04:42:26;;;;;;;8.83;6.63;;;7.70;99.90;;;;;;5012117;28;20974;-69
2022/11/06 04:44:59;;;;;;;8.50;6.83;;;7.70;99.90;;;;;;5010052;28;20432;-69
2022/11/06 04:47:25;;;;;;;8.73;6.57;;;7.70;99.90;;;;;;4997265;28;20464;-69
2022/11/06 04:49:55;;;;;;;9.33;5.53;;;7.70;99.90;;;;;;4996461;28;20453;-70
2022/11/06 04:52:27;;;;;;;8.53;6.40;;;7.70;99.90;;;;;;5031070;28;20458;-69
2022/11/06 04:54:54;;;;;;;6.83;5.90;;;7.70;99.90;;;;;;5014792;28;20521;-69
2022/11/06 04:57:21;;;;;;;8.60;6.70;;;7.70;99.90;;;;;;5000020;28;20453;-69
2022/11/06 04:59:47;;;;;;;9.13;6.03;;;7.70;99.90;;;;;;4999686;28;20453;-70
2022/11/06 05:02:12;;;;;;;7.97;5.37;;;7.70;99.90;;;;;;4991548;28;20496;-70
2022/11/06 05:04:38;;;;;;;7.10;5.70;;;7.70;99.90;;;;;;5021899;28;20191;-70
2022/11/06 05:07:04;;;;;;;6.00;5.10;;;7.70;99.90;;;;;;4993351;28;20232;-70
2022/11/06 05:09:29;;;;;;;6.87;5.77;;;7.70;99.90;;;;;;5022822;28;20679;-69
2022/11/06 05:11:55;;;;;;;8.43;6.07;;;7.60;99.90;;;;;;4993149;28;20650;-69
2022/11/06 05:14:21;;;;;;;7.00;5.77;;;7.60;99.90;;;;;;5016261;28;20879;-69
2022/11/06 05:16:46;;;;;;;9.40;6.60;;;7.60;99.90;;;;;;5003856;28;20217;-69
2022/11/06 05:19:12;;;;;;;9.33;6.23;;;7.50;99.90;;;;;;4991637;28;20533;-69
2022/11/06 05:24:21;;;;;;;7.03;6.10;;;7.60;99.90;;;;;;5010524;28;20240;-69
2022/11/06 05:26:47;;;;;;;8.33;5.43;;;7.50;99.90;;;;;;5018739;28;20417;-69
2022/11/06 05:29:13;;;;;;;8.70;6.43;;;7.50;99.90;;;;;;4997783;28;20226;-70
2022/11/06 05:31:39;;;;;;;8.37;5.83;;;7.60;99.90;;;;;;5007522;28;20219;-70
2022/11/06 05:34:05;;;;;;;10.00;7.50;;;7.60;99.90;;;;;;5000279;28;20194;-69
2022/11/06 05:36:30;;;;;;;13.30;6.50;;;7.50;99.90;;;;;;5005325;28;20436;-69
2022/11/06 05:38:56;;;;;;;7.60;6.20;;;7.40;99.90;;;;;;5004478;28;20442;-69
2022/11/06 05:41:21;;;;;;;10.73;8.70;;;7.30;99.90;;;;;;5007077;28;20303;-68
2022/11/06 05:43:47;;;;;;;13.43;7.13;;;7.30;99.90;;;;;;5007957;28;20176;-69
2022/11/06 05:46:13;;;;;;;10.70;7.40;;;7.20;99.90;;;;;;4997069;28;20182;-69
2022/11/06 05:48:38;;;;;;;9.00;6.63;;;7.20;99.90;;;;;;5001635;28;20599;-69
2022/11/06 05:51:06;;;;;;;9.10;6.80;;;7.10;99.90;;;;;;5015863;28;20198;-69
2022/11/06 05:53:33;;;;;;;12.50;6.97;;;7.10;99.90;;;;;;5014681;28;20214;-69
2022/11/06 05:55:59;;;;;;;8.97;6.83;;;7.10;99.90;;;;;;5003055;28;20702;-68
2022/11/06 05:58:25;;;;;;;10.80;7.97;;;7.00;99.90;;;;;;5004795;28;20481;-68
2022/11/06 06:00:51;;;;;;;11.80;7.97;;;7.00;99.90;;;;;;4999026;28;20191;-69
2022/11/06 06:03:17;;;;;;;10.00;7.70;;;7.00;99.90;;;;;;5024070;28;20780;-69
2022/11/06 06:05:42;;;;;;;8.13;7.07;;;6.90;99.90;;;;;;4992111;28;20221;-69
2022/11/06 06:08:08;;;;;;;8.17;6.70;;;6.90;99.90;;;;;;5022671;28;20200;-69
2022/11/06 06:10:33;;;;;;;10.60;7.50;;;6.80;99.90;;;;;;5013187;28;20217;-69
2022/11/06 06:12:59;;;;;;;7.83;7.03;;;6.80;99.90;;;;;;5011434;28;20234;-69
2022/11/06 06:15:24;;;;;;;9.33;7.00;;;6.80;99.90;;;;;;5010621;28;20210;-69
2022/11/06 06:17:50;;;;;;;10.10;7.03;;;6.80;99.90;;;;;;4999341;28;20707;-68
2022/11/06 06:20:16;;;;;;;9.97;6.53;;;6.80;99.90;;;;;;5009909;28;20183;-68
2022/11/06 06:22:41;;;;;;;9.73;6.50;;;6.80;99.90;;;;;;5015185;28;20272;-69
2022/11/06 06:25:07;;;;;;;9.00;6.20;;;6.80;99.90;;;;;;5007160;28;20260;-68
2022/11/06 06:27:33;;;;;;;9.67;7.23;;;6.80;99.90;;;;;;4995842;28;20186;-68
2022/11/06 06:29:58;;;;;;;8.13;6.57;;;6.80;99.90;;;;;;5010512;28;20222;-69
2022/11/06 06:32:24;;;;;;;8.80;6.40;;;6.80;99.90;;;;;;5008223;28;20275;-68
2022/11/06 06:34:50;;;;;;;9.83;7.20;;;6.80;99.90;;;;;;5007992;28;20186;-69
2022/11/06 06:37:15;;;;;;;12.47;8.53;;;6.80;99.90;;;;;;5013595;28;20190;-69
2022/11/06 06:39:41;;;;;;;16.60;7.77;;;6.80;99.90;;;;;;4995914;28;20196;-69
2022/11/06 06:42:06;;;;;;;12.10;7.63;;;6.70;99.90;;;;;;5004042;28;20245;-69
2022/11/06 06:44:32;;;;;;;9.37;6.93;;;6.80;99.90;;;;;;4996750;28;20269;-69
2022/11/06 06:46:57;;;;;;;10.67;6.80;;;6.70;99.90;;;;;;5014416;28;20417;-69
2022/11/06 06:49:23;;;;;;;8.87;5.60;;;6.80;99.90;;;;;;4991761;28;20189;-69
2022/11/06 06:51:49;;;;;;;9.17;7.47;;;6.80;99.90;;;;;;5016744;28;20368;-69
2022/11/06 06:54:15;;;;;;;11.27;7.80;;;6.80;99.90;;;;;;5000555;28;20188;-69
2022/11/06 06:56:41;;;;;;;12.70;5.90;;;6.90;99.90;;;;;;5008974;28;20771;-69
2022/11/06 06:59:06;;;;;;;13.30;6.20;;;6.90;99.90;;;;;;5007613;28;20430;-69
2022/11/06 07:01:33;;;;;;;8.23;6.43;;;6.90;99.90;;;;;;5001005;28;20210;-69
2022/11/06 07:03:58;;;;;;;5.93;5.33;;;7.00;99.90;;;;;;4998176;28;20538;-69
2022/11/06 07:06:24;;;;;;;6.60;4.70;;;7.00;99.90;;;;;;5010502;28;20529;-69
2022/11/06 07:08:54;;;;;;;7.23;5.30;;;7.00;99.90;;;;;;5009616;28;20179;-69
2022/11/06 07:11:19;;;;;;;5.90;5.07;;;7.00;99.90;;;;;;5015236;28;20469;-68
2022/11/06 07:13:45;;;;;;;8.23;5.10;;;7.00;99.90;;;;;;5009792;28;20464;-69
2022/11/06 07:16:11;;;;;;;7.70;3.90;;;7.10;99.90;;;;;;5009394;28;20187;-69
2022/11/06 07:18:38;;;;;;;6.80;5.20;;;7.10;99.90;;;;;;5016917;28;20502;-69
2022/11/06 07:21:05;;;;;;;6.17;4.70;;;7.10;99.90;;;;;;5008013;28;20218;-68
2022/11/06 07:23:32;;;;;;;14.57;11.50;;;7.10;99.90;;;;;;5002311;28;20442;-69
2022/11/06 07:25:57;;;;;;;7.87;5.30;;;7.10;99.90;;;;;;5015526;28;20479;-69
2022/11/06 07:28:23;;;;;;;7.43;5.63;;;7.10;99.90;;;;;;5001271;28;20434;-69
2022/11/06 07:30:49;;;;;;;8.00;5.63;;;7.20;99.90;;;;;;5005292;28;20262;-70
2022/11/06 07:33:14;;;;;;;9.40;6.67;;;7.20;99.90;;;;;;5011823;28;20201;-69
2022/11/06 07:35:40;;;;;;;7.10;4.43;;;7.20;99.90;;;;;;5012864;28;20183;-70
2022/11/06 07:38:06;;;;;;;5.13;4.33;;;7.20;99.90;;;;;;5009164;28;20199;-69
2022/11/06 07:40:32;;;;;;;9.03;4.17;;;7.30;99.90;;;;;;4995381;28;20676;-69
2022/11/06 07:43:10;;;;;;;7.17;4.30;;;7.30;99.90;;;;;;5016140;28;21061;-69
2022/11/06 07:45:36;;;;;;;6.00;5.13;;;7.40;99.90;;;;;;5008604;28;20914;-69
2022/11/06 07:48:03;;;;;;;8.20;4.00;;;7.40;99.90;;;;;;5019062;28;20438;-71
2022/11/06 07:50:29;;;;;;;6.10;4.17;;;7.40;99.90;;;;;;5014454;28;20448;-69
2022/11/06 07:52:55;;;;;;;4.53;3.67;;;7.50;99.90;;;;;;5013640;28;20467;-70
2022/11/06 07:55:21;;;;;;;7.93;3.87;;;7.50;99.90;;;;;;5013792;28;20191;-69
2022/11/06 07:57:46;;;;;;;5.17;3.80;;;7.50;99.90;;;;;;4980105;28;20195;-69
2022/11/06 08:00:13;;;;;;;6.40;4.17;;;7.50;99.90;;;;;;4996932;28;20195;-69
2022/11/06 08:02:39;;;;;;;5.07;4.00;;;7.60;99.90;;;;;;5003232;28;20640;-68
2022/11/06 08:05:05;;;;;;;5.23;3.93;;;7.60;99.90;;;;;;4999572;28;20513;-69
2022/11/06 08:07:30;;;;;;;6.07;3.50;;;7.70;99.90;;;;;;5012883;28;20450;-69
2022/11/06 08:09:56;;;;;;;4.70;3.90;;;7.70;99.90;;;;;;5013415;28;20421;-69
2022/11/06 08:12:21;;;;;;;5.40;4.07;;;7.70;99.90;;;;;;5018540;28;20211;-69
2022/11/06 08:14:47;;;;;;;7.27;4.70;;;7.80;99.90;;;;;;5007571;28;20179;-69
2022/11/06 08:17:12;;;;;;;5.27;4.17;;;7.80;99.90;;;;;;5019515;28;20532;-69
2022/11/06 08:19:38;;;;;;;5.60;4.47;;;7.90;99.90;;;;;;5000482;28;20202;-68
2022/11/06 08:22:04;;;;;;;4.97;4.33;;;7.90;99.90;;;;;;5013463;28;20211;-69
2022/11/06 08:24:29;;;;;;;6.97;4.70;;;7.80;99.90;;;;;;5005006;28;20265;-68
2022/11/06 08:26:56;;;;;;;6.93;4.90;;;7.60;99.90;;;;;;5016576;28;20700;-68
2022/11/06 08:29:21;;;;;;;8.00;5.60;;;7.50;99.90;;;;;;5000372;28;20597;-68
2022/11/06 08:31:47;;;;;;;8.20;5.50;;;7.60;99.90;;;;;;5014938;28;20478;-68
2022/11/06 08:34:12;;;;;;;7.43;6.10;;;7.60;99.90;;;;;;5016937;28;20187;-68
2022/11/06 08:36:44;;;;;;;10.67;7.90;;;7.70;99.90;;;;;;5006829;28;20201;-68
2022/11/06 08:39:09;;;;;;;7.20;5.67;;;7.70;99.90;;;;;;5007366;28;20189;-68
2022/11/06 08:41:35;;;;;;;12.27;7.50;;;7.90;99.90;;;;;;5004958;28;20476;-69
2022/11/06 08:44:00;;;;;;;9.20;6.60;;;8.00;99.90;;;;;;5014653;28;20252;-69
2022/11/06 08:46:26;;;;;;;8.73;6.30;;;8.10;99.90;;;;;;5003937;28;20195;-68
2022/11/06 08:48:52;;;;;;;9.73;7.03;;;8.10;99.90;;;;;;4997617;28;20179;-69
2022/11/06 08:51:18;;;;;;;11.30;6.60;;;8.20;99.90;;;;;;5025769;28;20294;-69
2022/11/06 08:53:43;;;;;;;10.90;5.80;;;8.30;99.90;;;;;;5011543;28;20277;-70
2022/11/06 08:56:09;;;;;;;10.73;7.33;;;8.30;99.90;;;;;;4998321;28;20528;-70
2022/11/06 08:58:35;;;;;;;7.77;5.83;;;8.40;99.90;;;;;;5013945;28;20195;-70
2022/11/06 09:01:00;;;;;;;8.83;6.60;;;8.40;99.90;;;;;;5015923;28;20796;-69
2022/11/06 09:03:26;;;;;;;9.37;6.50;;;8.50;99.90;;;;;;4982343;28;20562;-70
2022/11/06 09:05:51;;;;;;;7.83;5.50;;;8.60;99.90;;;;;;5001805;28;20257;-68
2022/11/06 09:08:17;;;;;;;9.13;6.20;;;8.60;99.90;;;;;;5014927;28;20211;-70
2022/11/06 09:10:43;;;;;;;7.13;5.30;;;8.60;99.90;;;;;;5030095;28;20175;-69
2022/11/06 09:13:09;;;;;;;6.60;5.43;;;8.70;99.90;;;;;;5022151;28;20195;-69
2022/11/06 09:15:36;;;;;;;7.90;6.10;;;8.70;99.90;;;;;;5022000;28;20446;-69
2022/11/06 09:18:01;;;;;;;7.30;5.60;;;8.80;99.90;;;;;;5022189;28;20556;-69
2022/11/06 09:20:27;;;;;;;7.40;5.47;;;8.90;99.90;;;;;;5008034;28;21050;-69
2022/11/06 09:22:53;;;;;;;6.60;5.00;;;8.90;99.90;;;;;;4999516;28;20202;-69
2022/11/06 09:25:19;;;;;;;6.27;5.07;;;8.90;99.90;;;;;;4999701;28;20202;-69
2022/11/06 09:27:47;;;;;;;6.60;5.10;;;9.00;99.90;;;;;;4996558;28;20426;-70
2022/11/06 09:30:15;;;;;;;6.87;4.37;;;9.00;99.90;;;;;;4999387;28;20175;-70
2022/11/06 09:32:52;;;;;;;5.83;4.10;;;9.10;99.90;;;;;;5005819;28;20499;-69
2022/11/06 09:35:19;;;;;;;5.93;4.90;;;9.10;99.90;;;;;;5006828;28;20888;-69
2022/11/06 09:37:45;;;;;;;7.30;4.83;;;9.20;99.90;;;;;;4993100;28;20433;-69
2022/11/06 09:40:27;;;;;;;8.53;4.40;;;9.30;99.90;;;;;;5018595;28;20441;-69
2022/11/06 09:42:57;;;;;;;7.90;4.90;;;9.30;99.90;;;;;;4992553;28;20501;-68
2022/11/06 09:45:27;;;;;;;5.67;4.03;;;9.40;99.90;;;;;;5010963;28;20450;-68
2022/11/06 09:48:07;;;;;;;5.27;4.20;;;9.40;99.90;;;;;;4992873;28;20428;-68
2022/11/06 09:50:40;;;;;;;7.50;4.50;;;9.50;99.90;;;;;;5010094;28;20428;-70
2022/11/06 09:53:16;;;;;;;6.27;4.70;;;9.60;99.90;;;;;;5009701;28;20480;-69
2022/11/06 09:55:43;;;;;;;6.83;5.30;;;9.70;99.90;;;;;;5000471;28;20430;-69
2022/11/06 09:58:19;;;;;;;9.07;6.77;;;9.80;99.90;;;;;;5014677;28;20846;-69
2022/11/06 10:00:47;;;;;;;10.93;6.27;;;9.80;99.90;;;;;;4996292;28;20445;-69
2022/11/06 10:03:23;;;;;;;7.87;6.17;;;9.90;99.90;;;;;;5014566;28;20418;-69
2022/11/06 10:05:52;;;;;;;6.83;5.47;;;10.00;99.90;;;;;;4995695;28;20449;-69
2022/11/06 10:08:22;;;;;;;4.93;4.43;;;10.00;99.90;;;;;;5011609;28;20418;-69
2022/11/06 10:11:02;;;;;;;5.57;4.93;;;10.10;99.90;;;;;;4997477;28;20434;-69
2022/11/06 10:13:47;;;;;;;7.20;5.30;;;10.20;99.90;;;;;;4993976;28;20434;-69
2022/11/06 10:16:28;;;;;;;7.70;5.07;;;10.30;99.90;;;;;;5005281;28;20417;-69
2022/11/06 10:19:35;;;;;;;5.70;5.10;;;10.30;99.90;;;;;;5020472;28;20449;-68
2022/11/06 10:22:06;;;;;;;11.73;6.80;;;10.40;99.90;;;;;;4988611;28;20570;-69
2022/11/06 10:24:44;;;;;;;11.27;5.40;;;10.50;99.90;;;;;;5017086;28;20426;-70
2022/11/06 10:27:18;;;;;;;14.70;5.33;;;10.60;99.90;;;;;;5016953;28;20606;-68
2022/11/06 10:30:02;;;;;;;10.33;6.20;;;10.70;99.90;;;;;;5015112;28;20805;-68
2022/11/06 10:32:54;;;;;;;8.83;5.10;;;10.70;99.90;;;;;;5001116;28;21289;-68
2022/11/06 10:35:33;;;;;;;8.13;5.07;;;10.80;99.90;;;;;;5014314;28;21005;-69
2022/11/06 10:38:17;;;;;;;4.40;3.50;;;10.90;99.90;;;;;;5001918;28;20919;-69
2022/11/06 10:40:45;;;;;;;9.77;4.50;;;11.00;99.90;;;;;;5001383;28;20442;-69
2022/11/06 10:43:26;;;;;;;7.67;4.33;;;11.00;99.90;;;;;;5002529;28;20429;-68
2022/11/06 10:46:02;;;;;;;5.07;4.13;;;11.10;99.90;;;;;;5003048;28;20491;-69
2022/11/06 10:48:36;;;;;;;4.87;4.20;;;11.10;99.90;;;;;;5005931;28;20429;-69
2022/11/06 10:51:02;;;;;;;6.50;3.90;;;11.20;99.90;;;;;;5002944;28;20426;-71
2022/11/06 10:53:44;;;;;;;6.17;5.07;;;11.20;99.90;;;;;;5008528;28;20430;-69
2022/11/06 10:56:38;;;;;;;10.27;4.70;;;11.20;99.90;;;;;;5018171;28;20175;-69
2022/11/06 10:59:04;;;;;;;5.33;4.30;;;11.30;99.90;;;;;;5001009;28;20426;-69
2022/11/06 11:01:30;;;;;;;5.53;4.00;;;11.30;99.90;;;;;;5010095;28;20473;-69
2022/11/06 11:03:55;;;;;;;6.70;5.10;;;11.40;99.90;;;;;;5007885;28;20429;-68
2022/11/06 11:06:21;;;;;;;8.33;4.70;;;11.40;99.90;;;;;;4998794;28;20220;-69
2022/11/06 11:08:50;;;;;;;4.07;3.63;;;11.40;99.90;;;;;;5008671;28;20318;-69
2022/11/06 11:11:23;;;;;;;5.50;3.93;;;11.40;99.90;;;;;;5014690;28;20631;-69
2022/11/06 11:13:50;;;;;;;4.33;3.67;;;11.50;99.90;;;;;;5014134;28;20426;-70
2022/11/06 11:16:23;;;;;;;4.07;3.43;;;11.50;99.90;;;;;;5032963;28;20465;-70
2022/11/06 11:18:49;;;;;;;4.80;4.10;;;11.60;99.90;;;;;;5021553;28;20984;-70
2022/11/06 11:21:23;;;;;;;7.40;3.87;;;11.70;99.90;;;;;;5005935;28;20760;-70
2022/11/06 11:24:06;;;;;;;5.20;4.20;;;11.80;99.90;;;;;;5007847;28;20801;-70
2022/11/06 11:26:41;;;;;;;5.50;3.83;;;11.90;99.90;;;;;;4992183;28;20852;-70
2022/11/06 11:29:25;;;;;;;9.10;3.80;;;12.00;99.90;;;;;;5001137;28;20437;-70
2022/11/06 11:31:54;;;;;;;4.67;3.80;;;12.20;99.90;;;;;;5014644;28;20456;-70
2022/11/06 11:34:23;;;;;;;11.77;4.57;;;12.20;99.90;;;;;;5022879;28;20461;-69
2022/11/06 11:36:57;;;;;;;6.30;4.33;;;12.40;99.90;;;;;;5020060;28;20504;-70
2022/11/06 11:39:26;;;;;;;6.43;4.10;;;12.50;99.90;;;;;;5012767;28;20434;-70
2022/11/06 11:41:52;;;;;;;5.50;3.63;;;12.60;99.90;;;;;;5016020;28;20477;-70
2022/11/06 11:44:19;;;;;;;5.90;4.00;;;12.80;99.90;;;;;;5006511;28;20986;-70
2022/11/06 11:46:45;;;;;;;6.53;4.50;;;13.00;99.90;;;;;;5022602;28;20239;-70
2022/11/06 11:49:28;;;;;;;6.60;4.57;;;13.00;99.90;;;;;;4997476;28;20914;-70
2022/11/06 11:51:56;;;;;;;4.80;3.90;;;13.20;99.90;;;;;;5000220;28;20257;-70
2022/11/06 11:54:25;;;;;;;7.57;4.37;;;13.30;99.90;;;;;;5003734;28;20478;-70
2022/11/06 11:57:02;;;;;;;6.80;4.27;;;13.30;99.90;;;;;;5013115;28;20781;-70
2022/11/06 11:59:45;;;;;;;5.43;4.20;;;13.40;99.90;;;;;;5017424;28;20436;-70
2022/11/06 12:02:39;;;;;;;5.60;3.97;;;13.40;99.90;;;;;;5005383;28;20480;-69
2022/11/06 12:05:11;;;;;;;5.37;4.20;;;13.30;99.90;;;;;;4997400;28;20417;-70
2022/11/06 12:07:40;;;;;;;12.17;4.93;;;13.30;99.90;;;;;;5019650;28;20445;-70
2022/11/06 12:10:38;;;;;;;5.50;4.20;;;13.30;99.90;;;;;;5000585;28;20818;-69
2022/11/06 12:13:15;;;;;;;6.73;4.10;;;13.30;99.90;;;;;;5024152;28;20456;-69
2022/11/06 12:15:57;;;;;;;5.23;4.10;;;13.40;99.90;;;;;;5009024;28;20450;-69
2022/11/06 12:18:29;;;;;;;4.23;3.83;;;13.40;99.90;;;;;;4999510;28;20787;-70
2022/11/06 12:21:05;;;;;;;6.50;4.17;;;13.50;99.90;;;;;;5007117;28;20426;-70
2022/11/06 12:23:43;;;;;;;4.90;4.27;;;13.50;99.90;;;;;;5008384;28;21060;-70
2022/11/06 12:26:25;;;;;;;8.07;4.57;;;13.40;99.90;;;;;;5010014;28;20922;-69
2022/11/06 12:28:54;;;;;;;5.20;4.30;;;13.40;99.90;;;;;;5023182;28;20508;-70
2022/11/06 12:31:27;;;;;;;6.40;4.00;;;13.40;99.90;;;;;;5015096;28;20522;-69
2022/11/06 12:33:55;;;;;;;4.73;3.97;;;13.40;99.90;;;;;;4998461;28;20869;-69
2022/11/06 12:36:25;;;;;;;11.23;9.27;;;13.30;99.90;;;;;;5016846;28;20429;-70
2022/11/06 12:39:00;;;;;;;7.20;4.90;;;13.30;99.90;;;;;;5013378;28;20436;-70
2022/11/06 12:41:31;;;;;;;7.27;5.93;;;13.30;99.90;;;;;;4997093;28;20995;-68
2022/11/06 12:43:57;;;;;;;7.80;5.63;;;13.30;99.90;;;;;;5004942;28;20849;-69
2022/11/06 12:46:54;;;;;;;6.60;5.47;;;13.30;99.90;;;;;;4990656;28;20421;-69
2022/11/06 12:49:46;;;;;;;7.60;5.20;;;13.30;99.90;;;;;;5022498;28;20490;-69
2022/11/06 12:52:17;;;;;;;6.77;5.27;;;13.40;99.90;;;;;;4996353;28;20441;-69
2022/11/06 12:54:49;;;;;;;7.30;6.43;;;13.40;99.90;;;;;;5009058;28;20937;-70
2022/11/06 12:57:29;;;;;;;7.47;5.97;;;13.50;99.90;;;;;;5004519;28;21310;-68
2022/11/06 13:00:05;;;;;;;5.33;4.70;;;13.50;99.90;;;;;;5008404;28;20426;-68
2022/11/06 13:02:55;;;;;;;5.83;5.23;;;13.40;99.90;;;;;;5016856;28;21216;-69
2022/11/06 13:05:39;;;;;;;5.83;5.23;;;13.40;99.90;;;;;;4999560;28;20992;-68
2022/11/06 13:08:57;;;;;;;6.40;4.80;;;13.40;99.90;;;;;;5014538;28;20405;-69
2022/11/06 13:11:56;;;;;;;6.77;5.30;;;13.30;99.90;;;;;;5018193;28;20471;-69
2022/11/06 13:14:31;;;;;;;6.50;4.73;;;13.20;99.90;;;;;;5016420;28;20429;-69
2022/11/06 13:17:12;;;;;;;7.73;5.50;;;13.20;99.90;;;;;;5012694;28;20913;-69
2022/11/06 13:19:51;;;;;;;9.30;4.90;;;13.20;99.90;;;;;;4994067;28;20433;-69
2022/11/06 13:22:32;;;;;;;7.20;5.10;;;13.20;99.90;;;;;;4995605;28;20736;-69
2022/11/06 13:25:07;;;;;;;7.90;5.67;;;13.10;99.90;;;;;;5005038;28;20438;-69
2022/11/06 13:27:39;;;;;;;5.53;4.97;;;13.00;99.90;;;;;;4998310;28;20428;-69